Time;durP1;ratioP1;P1;durP2;ratioP2;P2;SDS_P1;SDS_P2;PMS_P1;PMS_P2;Temp;Humidity;BMP_temperature;BMP_pressure;BME280_temperature;BME280_humidity;BME280_pressure;Samples;Min_cycle;Max_cycle;Signal;HPM_P1;HPM_P2
2022/10/03 00:01:46;;;;;;;15.82;8.25;;;;;;;;;;4975663;28;20497;-57
2022/10/03 00:04:12;;;;;;;18.17;8.77;;;;;;;;;;4975207;28;20054;-59
2022/10/03 00:06:59;;;;;;;14.45;8.65;;;;;;;;;;4975470;28;20342;-57
2022/10/03 00:09:27;;;;;;;14.50;8.57;;;;;;;;;;4976545;28;20059;-55
2022/10/03 00:12:11;;;;;;;17.38;9.23;;;;;;;;;;4976795;28;20057;-55
2022/10/03 00:15:01;;;;;;;18.33;10.20;;;;;;;;;;4979757;28;20038;-55
2022/10/03 00:17:50;;;;;;;16.70;9.40;;;;;;;;;;4977318;28;20057;-55
2022/10/03 00:20:37;;;;;;;20.20;9.52;;;;;;;;;;4972272;28;20089;-57
2022/10/03 00:23:19;;;;;;;15.90;8.88;;;;;;;;;;4972712;28;20129;-58
2022/10/03 00:25:53;;;;;;;17.88;9.88;;;;;;;;;;4984933;28;20054;-57
2022/10/03 00:28:59;;;;;;;17.92;9.32;;;;;;;;;;4978663;28;20129;-57
2022/10/03 00:31:41;;;;;;;18.65;9.23;;;;;;;;;;4979608;28;20078;-58
2022/10/03 00:34:31;;;;;;;16.20;9.90;;;;;;;;;;4978199;28;20084;-57
2022/10/03 00:37:21;;;;;;;14.00;9.27;;;;;;;;;;4979677;28;20042;-57
2022/10/03 00:40:18;;;;;;;14.90;9.20;;;;;;;;;;4978322;28;20688;-57
2022/10/03 00:43:08;;;;;;;13.52;8.88;;;;;;;;;;4977622;28;20050;-56
2022/10/03 00:46:08;;;;;;;15.70;9.07;;;;;;;;;;4976747;28;20043;-56
2022/10/03 00:49:07;;;;;;;17.08;9.10;;;;;;;;;;4985028;28;20045;-57
2022/10/03 00:51:44;;;;;;;17.05;8.57;;;;;;;;;;4982864;28;20096;-69
2022/10/03 00:54:34;;;;;;;16.85;8.80;;;;;;;;;;4981072;28;20100;-69
2022/10/03 00:57:37;;;;;;;17.88;8.57;;;;;;;;;;4977098;28;20713;-70
2022/10/03 01:00:25;;;;;;;19.75;9.57;;;;;;;;;;4974710;28;20197;-68
2022/10/03 01:02:51;;;;;;;17.00;9.10;;;;;;;;;;4974495;28;20062;-59
2022/10/03 01:05:49;;;;;;;15.80;10.00;;;;;;;;;;4979970;28;20033;-59
2022/10/03 01:08:45;;;;;;;19.23;9.68;;;;;;;;;;4952178;28;20088;-62
2022/10/03 01:11:23;;;;;;;25.38;10.23;;;;;;;;;;4972144;28;20201;-65
2022/10/03 01:14:00;;;;;;;25.95;10.63;;;;;;;;;;4976778;28;20047;-65
2022/10/03 01:16:53;;;;;;;21.35;10.80;;;;;;;;;;4972824;28;20046;-64
2022/10/03 01:19:42;;;;;;;17.15;9.70;;;;;;;;;;4979132;28;20461;-63
2022/10/03 01:22:26;;;;;;;21.30;11.13;;;;;;;;;;4974437;28;20472;-65
2022/10/03 01:25:00;;;;;;;18.38;10.32;;;;;;;;;;4977969;28;20046;-63
2022/10/03 01:30:21;;;;;;;19.75;10.68;;;;;;;;;;4976163;28;20051;-65
2022/10/03 01:30:33;;;;;;;20.00;10.90;;;;;;;;;;4978587;28;20062;-64
2022/10/03 01:33:27;;;;;;;17.25;9.68;;;;;;;;;;4975846;28;20050;-65
2022/10/03 01:36:19;;;;;;;20.98;11.90;;;;;;;;;;4962714;28;20049;-64
2022/10/03 01:39:00;;;;;;;16.80;10.07;;;;;;;;;;4977288;28;20113;-65
2022/10/03 01:41:58;;;;;;;19.65;10.50;;;;;;;;;;4978504;28;20065;-65
2022/10/03 01:44:36;;;;;;;15.77;9.73;;;;;;;;;;4975290;28;20721;-64
2022/10/03 01:47:04;;;;;;;20.77;10.52;;;;;;;;;;4972343;28;20055;-67
2022/10/03 01:49:40;;;;;;;16.67;9.52;;;;;;;;;;4969676;28;21943;-65
2022/10/03 01:52:20;;;;;;;14.90;9.05;;;;;;;;;;4976450;28;20038;-65
2022/10/03 01:55:09;;;;;;;15.95;9.52;;;;;;;;;;4981629;28;20066;-65
2022/10/03 01:57:41;;;;;;;17.73;8.98;;;;;;;;;;4979295;28;20063;-65
2022/10/03 02:00:16;;;;;;;20.00;9.55;;;;;;;;;;4980433;28;20129;-64
2022/10/03 02:02:50;;;;;;;18.70;9.32;;;;;;;;;;4971707;28;20037;-65
2022/10/03 02:05:18;;;;;;;14.20;9.23;;;;;;;;;;4980888;28;20058;-65
2022/10/03 02:08:02;;;;;;;12.82;8.18;;;;;;;;;;4977534;28;20046;-64
2022/10/03 02:10:50;;;;;;;16.95;8.52;;;;;;;;;;4979891;28;20070;-62
2022/10/03 02:13:42;;;;;;;14.73;8.43;;;;;;;;;;4957760;28;20086;-62
2022/10/03 02:16:14;;;;;;;14.85;8.00;;;;;;;;;;4976168;28;20110;-65
2022/10/03 02:18:57;;;;;;;14.88;8.23;;;;;;;;;;4977896;28;20064;-65
2022/10/03 02:21:29;;;;;;;14.02;8.25;;;;;;;;;;4974657;28;20050;-65
2022/10/03 02:24:16;;;;;;;12.25;7.55;;;;;;;;;;4976759;28;20058;-65
2022/10/03 02:27:21;;;;;;;15.57;7.80;;;;;;;;;;4973741;28;20046;-64
2022/10/03 02:30:14;;;;;;;14.20;7.43;;;;;;;;;;4956662;28;22337;-66
2022/10/03 02:33:03;;;;;;;13.95;8.10;;;;;;;;;;4973071;28;20045;-64
2022/10/03 02:36:26;;;;;;;11.65;7.60;;;;;;;;;;4980827;28;20754;-64
2022/10/03 02:39:04;;;;;;;14.38;7.40;;;;;;;;;;4883086;29;20059;-65
2022/10/03 02:41:51;;;;;;;18.35;7.75;;;;;;;;;;4878664;29;20048;-64
2022/10/03 02:44:35;;;;;;;13.00;7.47;;;;;;;;;;4945604;28;20969;-64
2022/10/03 02:47:21;;;;;;;17.55;8.40;;;;;;;;;;4975696;28;20129;-64
2022/10/03 02:50:05;;;;;;;14.02;7.18;;;;;;;;;;4976980;28;20525;-64
2022/10/03 02:53:07;;;;;;;11.95;7.95;;;;;;;;;;4973372;28;20051;-63
2022/10/03 02:56:05;;;;;;;15.75;8.25;;;;;;;;;;4974823;28;20050;-63
2022/10/03 02:58:39;;;;;;;13.25;8.00;;;;;;;;;;4929706;28;20073;-63
2022/10/03 03:01:32;;;;;;;13.13;7.82;;;;;;;;;;4977559;28;20069;-64
2022/10/03 03:04:29;;;;;;;14.80;7.93;;;;;;;;;;4974471;28;20051;-63
2022/10/03 03:07:25;;;;;;;11.80;7.97;;;;;;;;;;4974115;28;20050;-69
2022/10/03 03:10:12;;;;;;;10.88;7.07;;;;;;;;;;4974462;28;20718;-70
2022/10/03 03:12:37;;;;;;;14.00;8.52;;;;;;;;;;4975843;28;20053;-69
2022/10/03 03:15:11;;;;;;;17.58;8.05;;;;;;;;;;4979768;28;20046;-69
2022/10/03 03:17:53;;;;;;;12.10;7.68;;;;;;;;;;4976489;28;20037;-69
2022/10/03 03:20:52;;;;;;;11.93;7.70;;;;;;;;;;4976447;28;20039;-68
2022/10/03 03:23:45;;;;;;;13.90;6.93;;;;;;;;;;4979200;28;20054;-69
2022/10/03 03:26:34;;;;;;;14.02;7.80;;;;;;;;;;4981145;28;20050;-68
2022/10/03 03:29:09;;;;;;;10.15;7.35;;;;;;;;;;4946986;28;20078;-69
2022/10/03 03:31:54;;;;;;;10.98;7.15;;;;;;;;;;4965184;28;20078;-69
2022/10/03 03:34:51;;;;;;;11.57;7.25;;;;;;;;;;4955651;28;20457;-69
2022/10/03 03:37:49;;;;;;;13.95;7.72;;;;;;;;;;4965733;28;20060;-69
2022/10/03 03:40:34;;;;;;;17.15;8.40;;;;;;;;;;4962130;28;20606;-69
2022/10/03 03:43:11;;;;;;;14.43;8.05;;;;;;;;;;4958750;28;20059;-68
2022/10/03 03:46:04;;;;;;;14.80;8.40;;;;;;;;;;4961834;28;20564;-69
2022/10/03 03:48:53;;;;;;;18.67;8.60;;;;;;;;;;4966810;28;20383;-69
2022/10/03 03:51:27;;;;;;;14.48;8.02;;;;;;;;;;4912209;28;20055;-69
2022/10/03 03:54:30;;;;;;;14.32;8.55;;;;;;;;;;4962510;28;20057;-69
2022/10/03 03:57:14;;;;;;;14.95;7.63;;;;;;;;;;4960851;28;20536;-69
2022/10/03 04:00:13;;;;;;;15.73;9.07;;;;;;;;;;4971630;28;20223;-69
2022/10/03 04:02:54;;;;;;;17.42;8.50;;;;;;;;;;4970769;28;20125;-69
2022/10/03 04:05:34;;;;;;;16.73;9.00;;;;;;;;;;4983469;28;20034;-68
2022/10/03 04:08:14;;;;;;;19.85;9.00;;;;;;;;;;4979637;28;20050;-64
2022/10/03 04:10:46;;;;;;;11.35;7.32;;;;;;;;;;4981180;28;20480;-64
2022/10/03 04:13:39;;;;;;;14.50;7.65;;;;;;;;;;4980039;28;20061;-64
2022/10/03 04:19:41;;;;;;;14.05;8.02;;;;;;;;;;4978875;28;20049;-64
2022/10/03 04:22:29;;;;;;;11.20;8.13;;;;;;;;;;4979262;28;20386;-63
2022/10/03 04:25:09;;;;;;;12.82;8.13;;;;;;;;;;4979611;28;20054;-64
2022/10/03 04:28:16;;;;;;;11.88;7.78;;;;;;;;;;4977979;28;20125;-64
2022/10/03 04:31:01;;;;;;;10.65;7.35;;;;;;;;;;4947350;28;20508;-67
2022/10/03 04:33:48;;;;;;;12.98;7.72;;;;;;;;;;4979985;28;20125;-65
2022/10/03 04:36:38;;;;;;;15.35;7.32;;;;;;;;;;4979781;28;20046;-64
2022/10/03 04:39:23;;;;;;;15.30;7.60;;;;;;;;;;4980669;28;20050;-64
2022/10/03 04:42:25;;;;;;;12.05;7.82;;;;;;;;;;4980107;28;20409;-64
2022/10/03 04:44:54;;;;;;;9.45;7.10;;;;;;;;;;4951237;28;20089;-64
2022/10/03 04:47:32;;;;;;;14.77;8.40;;;;;;;;;;4973888;28;20030;-64
2022/10/03 04:50:00;;;;;;;17.20;7.93;;;;;;;;;;4977992;28;20053;-64
2022/10/03 04:52:47;;;;;;;14.10;8.23;;;;;;;;;;4975507;28;20054;-64
2022/10/03 04:55:37;;;;;;;13.13;8.32;;;;;;;;;;4977313;28;20051;-64
2022/10/03 04:58:21;;;;;;;18.42;8.20;;;;;;;;;;4974959;28;20046;-64
2022/10/03 05:01:11;;;;;;;14.95;8.50;;;;;;;;;;4972792;28;21619;-64
2022/10/03 05:03:56;;;;;;;13.13;7.93;;;;;;;;;;4977605;28;20406;-60
2022/10/03 05:06:36;;;;;;;19.95;8.38;;;;;;;;;;4976501;28;20049;-59
2022/10/03 05:09:31;;;;;;;12.90;7.85;;;;;;;;;;4974452;28;20050;-60
2022/10/03 05:12:32;;;;;;;16.55;8.77;;;;;;;;;;4978003;28;20046;-60
2022/10/03 05:15:17;;;;;;;17.67;8.48;;;;;;;;;;4973596;28;20049;-59
2022/10/03 05:17:55;;;;;;;14.13;7.88;;;;;;;;;;4979654;28;20041;-60
2022/10/03 05:20:23;;;;;;;15.80;8.60;;;;;;;;;;4981180;28;20081;-60
2022/10/03 05:23:10;;;;;;;15.73;8.10;;;;;;;;;;4977569;28;20153;-60
2022/10/03 05:26:00;;;;;;;18.35;8.48;;;;;;;;;;4977100;28;20043;-60
2022/10/03 05:28:49;;;;;;;16.92;7.70;;;;;;;;;;4979341;28;20054;-60
2022/10/03 05:31:23;;;;;;;15.10;8.02;;;;;;;;;;4961416;28;20191;-60
2022/10/03 05:34:00;;;;;;;15.63;7.90;;;;;;;;;;4973394;28;20054;-61
2022/10/03 05:36:32;;;;;;;15.52;7.82;;;;;;;;;;4975352;28;20057;-60
2022/10/03 05:39:19;;;;;;;16.60;8.05;;;;;;;;;;4972489;28;20050;-60
2022/10/03 05:42:37;;;;;;;12.30;7.38;;;;;;;;;;4973649;28;20030;-60
2022/10/03 05:45:11;;;;;;;14.30;7.40;;;;;;;;;;4942809;28;20050;-60
2022/10/03 05:47:55;;;;;;;13.13;7.30;;;;;;;;;;4974216;28;20034;-60
2022/10/03 05:50:40;;;;;;;14.35;7.45;;;;;;;;;;4978114;28;20038;-60
2022/10/03 05:53:24;;;;;;;13.50;7.50;;;;;;;;;;4978141;28;20057;-60
2022/10/03 05:56:24;;;;;;;11.80;7.25;;;;;;;;;;4979094;28;20582;-60
2022/10/03 05:59:14;;;;;;;14.20;7.53;;;;;;;;;;4978450;28;20075;-60
2022/10/03 06:02:05;;;;;;;14.10;7.32;;;;;;;;;;4974341;28;20074;-60
2022/10/03 06:04:52;;;;;;;15.95;7.53;;;;;;;;;;4974622;28;20129;-60
2022/10/03 06:07:55;;;;;;;11.82;7.45;;;;;;;;;;4973672;28;20394;-62
2022/10/03 06:10:20;;;;;;;13.90;8.13;;;;;;;;;;4974046;28;20413;-57
2022/10/03 06:12:53;;;;;;;11.02;7.53;;;;;;;;;;4974435;28;20056;-53
2022/10/03 06:15:24;;;;;;;22.80;7.95;;;;;;;;;;4976373;28;20066;-52
2022/10/03 06:18:33;;;;;;;14.77;7.85;;;;;;;;;;4970455;28;20050;-57
2022/10/03 06:21:11;;;;;;;14.02;7.65;;;;;;;;;;4956356;28;20061;-55
2022/10/03 06:24:12;;;;;;;11.85;7.10;;;;;;;;;;4976099;28;20034;-55
2022/10/03 06:26:49;;;;;;;18.23;7.20;;;;;;;;;;4980366;28;20037;-75
2022/10/03 06:29:36;;;;;;;17.27;7.13;;;;;;;;;;4976851;28;20058;-66
2022/10/03 06:32:17;;;;;;;15.07;7.53;;;;;;;;;;4976962;28;20504;-66
2022/10/03 06:35:08;;;;;;;15.82;7.32;;;;;;;;;;4970722;28;20108;-67
2022/10/03 06:37:46;;;;;;;16.92;6.97;;;;;;;;;;4979296;28;20133;-67
2022/10/03 06:40:58;;;;;;;15.93;6.35;;;;;;;;;;4976931;28;20047;-67
2022/10/03 06:43:36;;;;;;;9.63;5.60;;;;;;;;;;4970642;28;20401;-66
2022/10/03 06:46:20;;;;;;;15.95;5.25;;;;;;;;;;4973818;28;20050;-67
2022/10/03 06:49:03;;;;;;;12.73;5.50;;;;;;;;;;4971089;28;20425;-67
2022/10/03 06:52:09;;;;;;;15.05;5.20;;;;;;;;;;4979926;28;20096;-67
2022/10/03 06:54:52;;;;;;;10.65;5.07;;;;;;;;;;4978344;28;20165;-66
2022/10/03 06:57:40;;;;;;;10.20;5.95;;;;;;;;;;4974014;28;20129;-66
2022/10/03 07:00:11;;;;;;;10.05;4.22;;;;;;;;;;4974467;28;20128;-66
2022/10/03 07:03:00;;;;;;;10.25;5.00;;;;;;;;;;4954696;28;20038;-66
2022/10/03 07:06:20;;;;;;;9.48;4.47;;;;;;;;;;4974222;28;20030;-65
2022/10/03 07:09:12;;;;;;;10.68;4.38;;;;;;;;;;4876907;29;20039;-67
2022/10/03 07:11:56;;;;;;;6.88;4.28;;;;;;;;;;4953943;28;20050;-67
2022/10/03 07:14:54;;;;;;;12.00;4.30;;;;;;;;;;4980834;28;20034;-66
2022/10/03 07:17:44;;;;;;;10.88;5.47;;;;;;;;;;4946123;28;20077;-66
2022/10/03 07:20:18;;;;;;;9.75;3.83;;;;;;;;;;4979631;28;20058;-66
2022/10/03 07:22:53;;;;;;;11.45;4.35;;;;;;;;;;4976545;28;20058;-66
2022/10/03 07:25:46;;;;;;;11.15;4.38;;;;;;;;;;4986272;28;20054;-67
2022/10/03 07:28:33;;;;;;;9.98;4.45;;;;;;;;;;4979600;28;20050;-67
2022/10/03 07:31:32;;;;;;;8.27;4.47;;;;;;;;;;4977806;28;20133;-67
2022/10/03 07:34:09;;;;;;;7.95;4.47;;;;;;;;;;4979040;28;20046;-67
2022/10/03 07:40:27;;;;;;;10.68;4.03;;;;;;;;;;4977819;28;20057;-66
2022/10/03 07:43:18;;;;;;;8.70;4.00;;;;;;;;;;4978689;28;20149;-67
2022/10/03 07:45:59;;;;;;;8.88;4.20;;;;;;;;;;4977169;28;20049;-65
2022/10/03 07:48:34;;;;;;;9.98;4.18;;;;;;;;;;4975304;28;20054;-64
2022/10/03 07:51:00;;;;;;;8.93;4.00;;;;;;;;;;4974370;28;20722;-63
2022/10/03 07:53:44;;;;;;;8.27;4.00;;;;;;;;;;4976626;28;20042;-64
2022/10/03 07:56:41;;;;;;;6.88;3.83;;;;;;;;;;4976524;28;20046;-64
2022/10/03 07:59:25;;;;;;;7.97;4.22;;;;;;;;;;4963218;28;20061;-64
2022/10/03 08:02:07;;;;;;;10.13;4.22;;;;;;;;;;4977932;28;20611;-64
2022/10/03 08:04:45;;;;;;;6.20;3.92;;;;;;;;;;4955939;28;20481;-64
2022/10/03 08:07:25;;;;;;;9.52;3.65;;;;;;;;;;4977835;28;20085;-60
2022/10/03 08:10:09;;;;;;;6.53;4.03;;;;;;;;;;4977484;28;20046;-59
2022/10/03 08:13:22;;;;;;;9.27;4.13;;;;;;;;;;4977637;28;20557;-59
2022/10/03 08:16:12;;;;;;;8.00;4.10;;;;;;;;;;4975182;28;20081;-59
2022/10/03 08:18:56;;;;;;;12.20;4.25;;;;;;;;;;4967096;28;20081;-61
2022/10/03 08:21:37;;;;;;;8.80;3.90;;;;;;;;;;4975571;28;20050;-70
2022/10/03 08:24:15;;;;;;;9.95;4.93;;;;;;;;;;4977882;28;20141;-69
2022/10/03 08:26:57;;;;;;;8.73;3.65;;;;;;;;;;4984673;28;20043;-61
2022/10/03 08:29:56;;;;;;;5.65;3.42;;;;;;;;;;4971998;28;20052;-62
2022/10/03 08:32:24;;;;;;;12.70;3.47;;;;;;;;;;4985134;28;20042;-62
2022/10/03 08:35:29;;;;;;;6.60;3.58;;;;;;;;;;4983127;28;20033;-62
2022/10/03 08:38:00;;;;;;;8.48;3.35;;;;;;;;;;4924133;28;20078;-62
2022/10/03 08:40:56;;;;;;;7.30;3.25;;;;;;;;;;4978126;28;20050;-62
2022/10/03 08:43:44;;;;;;;8.80;3.42;;;;;;;;;;4975797;28;21371;-61
2022/10/03 08:46:18;;;;;;;7.55;3.50;;;;;;;;;;4973331;28;21031;-62
2022/10/03 08:49:05;;;;;;;12.60;3.10;;;;;;;;;;4981816;28;20050;-61
2022/10/03 08:51:39;;;;;;;9.48;3.45;;;;;;;;;;4978111;28;20754;-61
2022/10/03 08:54:18;;;;;;;5.60;3.45;;;;;;;;;;4978399;28;20050;-62
2022/10/03 08:57:08;;;;;;;7.93;3.58;;;;;;;;;;4974865;28;20410;-61
2022/10/03 09:00:11;;;;;;;8.68;3.50;;;;;;;;;;4970753;28;20074;-61
2022/10/03 09:02:59;;;;;;;4.60;3.35;;;;;;;;;;4979472;28;20045;-62
2022/10/03 09:05:56;;;;;;;7.45;3.70;;;;;;;;;;4976300;28;20077;-63
2022/10/03 09:08:25;;;;;;;9.23;4.10;;;;;;;;;;4977861;28;20054;-63
2022/10/03 09:11:04;;;;;;;7.60;3.65;;;;;;;;;;4973256;28;20176;-63
2022/10/03 09:13:57;;;;;;;8.93;3.53;;;;;;;;;;4977780;28;20081;-63
2022/10/03 09:16:46;;;;;;;9.13;3.88;;;;;;;;;;4973407;28;21946;-63
2022/10/03 09:19:24;;;;;;;7.88;3.78;;;;;;;;;;4970836;28;20080;-63
2022/10/03 09:22:08;;;;;;;12.35;3.63;;;;;;;;;;4960666;28;20069;-62
2022/10/03 09:24:53;;;;;;;7.10;3.53;;;;;;;;;;4974389;28;20042;-63
2022/10/03 09:27:44;;;;;;;11.57;3.78;;;;;;;;;;4971652;28;20198;-63
2022/10/03 09:30:15;;;;;;;8.40;3.80;;;;;;;;;;4978079;28;20038;-62
2022/10/03 09:32:59;;;;;;;10.15;3.65;;;;;;;;;;4972309;28;20041;-63
2022/10/03 09:35:39;;;;;;;8.85;3.70;;;;;;;;;;4971927;28;20042;-63
2022/10/03 09:38:23;;;;;;;11.70;4.35;;;;;;;;;;4973761;28;20137;-62
2022/10/03 09:41:00;;;;;;;10.07;3.63;;;;;;;;;;4971889;28;20144;-62
2022/10/03 09:43:39;;;;;;;12.48;4.00;;;;;;;;;;4984080;28;20057;-62
2022/10/03 09:46:04;;;;;;;10.10;3.83;;;;;;;;;;4974047;28;20441;-62
2022/10/03 09:48:45;;;;;;;7.60;3.70;;;;;;;;;;4969314;28;20104;-62
2022/10/03 09:51:31;;;;;;;14.25;3.40;;;;;;;;;;4979545;28;20445;-63
2022/10/03 09:54:30;;;;;;;12.00;3.95;;;;;;;;;;4956400;28;20057;-63
2022/10/03 09:57:13;;;;;;;10.75;3.40;;;;;;;;;;4961368;28;20077;-63
2022/10/03 09:59:49;;;;;;;9.88;3.42;;;;;;;;;;4976794;28;20461;-63
2022/10/03 10:02:54;;;;;;;11.23;3.47;;;;;;;;;;4974978;28;20161;-63
2022/10/03 10:05:55;;;;;;;8.68;2.95;;;;;;;;;;4957413;28;20057;-63
2022/10/03 10:08:39;;;;;;;9.27;3.38;;;;;;;;;;4960090;28;20061;-64
2022/10/03 10:11:16;;;;;;;9.82;3.50;;;;;;;;;;4976218;28;20046;-64
2022/10/03 10:14:03;;;;;;;8.60;3.22;;;;;;;;;;4971911;28;20062;-64
2022/10/03 10:16:44;;;;;;;10.93;3.58;;;;;;;;;;4975355;28;20059;-64
2022/10/03 10:19:25;;;;;;;9.18;3.25;;;;;;;;;;4974285;28;20374;-64
2022/10/03 10:22:17;;;;;;;11.85;4.15;;;;;;;;;;4976900;28;20521;-64
2022/10/03 10:25:02;;;;;;;12.65;3.78;;;;;;;;;;4972846;28;20046;-64
2022/10/03 10:27:46;;;;;;;9.20;3.92;;;;;;;;;;4970895;28;20068;-64
2022/10/03 10:30:33;;;;;;;10.38;4.15;;;;;;;;;;4970219;28;20050;-63
2022/10/03 10:33:36;;;;;;;11.70;3.88;;;;;;;;;;4978294;28;20065;-64
2022/10/03 10:36:31;;;;;;;14.30;4.10;;;;;;;;;;4966434;28;20049;-65
2022/10/03 10:39:19;;;;;;;7.68;3.92;;;;;;;;;;4964223;28;20046;-65
2022/10/03 10:41:44;;;;;;;10.38;3.67;;;;;;;;;;4970996;28;20034;-64
2022/10/03 10:44:38;;;;;;;7.60;3.33;;;;;;;;;;4951795;28;21610;-64
2022/10/03 10:47:06;;;;;;;;;;;;;;;;;;4974206;28;20093;-64
2022/10/03 10:50:23;;;;;;;15.77;3.70;;;;;;;;;;4981561;28;19967;-64
2022/10/03 10:53:17;;;;;;;10.02;3.35;;;;;;;;;;4973334;28;21023;-64
2022/10/03 10:56:05;;;;;;;;;;;;;;;;;;4967655;28;20494;-62
2022/10/03 10:58:49;;;;;;;10.88;3.00;;;;;;;;;;4941380;28;19921;-65
2022/10/03 11:01:32;;;;;;;8.95;2.92;;;;;;;;;;4967371;28;20142;-65
2022/10/03 11:04:16;;;;;;;8.27;2.95;;;;;;;;;;4969618;28;20052;-65
2022/10/03 11:07:10;;;;;;;9.32;2.97;;;;;;;;;;4971240;28;20110;-64
2022/10/03 11:09:54;;;;;;;7.38;3.10;;;;;;;;;;4973108;28;20061;-63
2022/10/03 11:12:28;;;;;;;6.03;2.88;;;;;;;;;;4968848;28;20055;-63
2022/10/03 11:15:24;;;;;;;8.20;2.85;;;;;;;;;;4967709;28;20129;-63
2022/10/03 11:18:06;;;;;;;5.95;3.00;;;;;;;;;;4971964;28;20054;-63
2022/10/03 11:20:52;;;;;;;5.22;3.10;;;;;;;;;;4977395;28;20486;-63
2022/10/03 11:23:36;;;;;;;11.80;3.15;;;;;;;;;;4972992;28;20112;-63
2022/10/03 11:26:07;;;;;;;6.80;3.10;;;;;;;;;;4973930;28;20133;-63
2022/10/03 11:29:04;;;;;;;7.10;2.90;;;;;;;;;;4972207;28;20054;-65
2022/10/03 11:32:08;;;;;;;6.78;3.25;;;;;;;;;;4944751;28;20154;-64
2022/10/03 11:34:36;;;;;;;10.05;3.72;;;;;;;;;;4973108;28;20197;-65
2022/10/03 11:37:04;;;;;;;9.55;3.80;;;;;;;;;;4978348;28;20039;-64
2022/10/03 11:39:46;;;;;;;14.25;3.92;;;;;;;;;;4973369;28;20053;-64
2022/10/03 11:42:11;;;;;;;8.27;3.53;;;;;;;;;;4973386;28;20113;-64
2022/10/03 11:44:56;;;;;;;10.60;3.45;;;;;;;;;;4973023;28;20466;-64
2022/10/03 11:47:51;;;;;;;9.15;3.65;;;;;;;;;;4973476;28;20030;-59
2022/10/03 11:50:25;;;;;;;9.43;3.35;;;;;;;;;;4975510;28;21959;-59
2022/10/03 11:52:53;;;;;;;8.90;4.00;;;;;;;;;;4972682;28;20057;-60
2022/10/03 11:55:31;;;;;;;8.02;3.42;;;;;;;;;;4979881;28;20069;-59
2022/10/03 11:58:27;;;;;;;6.85;3.55;;;;;;;;;;4975152;28;21355;-59
2022/10/03 12:01:15;;;;;;;7.30;3.25;;;;;;;;;;4979131;28;20050;-59
2022/10/03 12:04:17;;;;;;;7.57;3.05;;;;;;;;;;4977679;28;20459;-58
2022/10/03 12:09:55;;;;;;;10.48;3.45;;;;;;;;;;4973147;28;20109;-60
2022/10/03 12:12:36;;;;;;;8.35;3.50;;;;;;;;;;4976404;28;20108;-60
2022/10/03 12:15:34;;;;;;;5.28;3.20;;;;;;;;;;4972019;28;20046;-60
2022/10/03 12:18:15;;;;;;;5.78;3.10;;;;;;;;;;4969087;28;20663;-59
2022/10/03 12:21:08;;;;;;;8.32;3.30;;;;;;;;;;4972999;28;20129;-60
2022/10/03 12:23:42;;;;;;;9.75;3.63;;;;;;;;;;4968094;28;20100;-60
2022/10/03 12:26:16;;;;;;;5.93;3.22;;;;;;;;;;4975967;28;20038;-59
2022/10/03 12:28:46;;;;;;;8.88;3.25;;;;;;;;;;4946905;28;20054;-59
2022/10/03 12:31:44;;;;;;;8.63;2.50;;;;;;;;;;4973114;28;20473;-59
2022/10/03 12:34:21;;;;;;;11.25;3.33;;;;;;;;;;4938924;28;20054;-59
2022/10/03 12:37:18;;;;;;;7.78;2.70;;;;;;;;;;4977244;28;20060;-59
2022/10/03 12:39:47;;;;;;;9.48;3.00;;;;;;;;;;4973516;28;20043;-59
2022/10/03 12:42:21;;;;;;;7.43;2.92;;;;;;;;;;4969855;28;20077;-58
2022/10/03 12:45:11;;;;;;;8.43;3.17;;;;;;;;;;4971539;28;20445;-59
2022/10/03 12:47:59;;;;;;;4.85;2.05;;;;;;;;;;4976673;28;20149;-59
2022/10/03 12:50:42;;;;;;;6.32;2.47;;;;;;;;;;4979483;28;20045;-59
2022/10/03 12:53:14;;;;;;;6.55;2.38;;;;;;;;;;4978556;28;20147;-59
2022/10/03 12:56:11;;;;;;;6.60;2.30;;;;;;;;;;4980349;28;20074;-58
2022/10/03 12:59:14;;;;;;;5.13;2.30;;;;;;;;;;4963762;28;20053;-59
2022/10/03 13:01:48;;;;;;;6.25;2.40;;;;;;;;;;4972326;28;20069;-57
2022/10/03 13:04:32;;;;;;;5.60;2.60;;;;;;;;;;4953415;28;20918;-60
2022/10/03 13:07:14;;;;;;;7.53;2.95;;;;;;;;;;4976346;28;20133;-59
2022/10/03 13:09:48;;;;;;;7.60;3.10;;;;;;;;;;4967815;28;20501;-60
2022/10/03 13:12:39;;;;;;;4.97;2.60;;;;;;;;;;4967017;28;20116;-59
2022/10/03 13:15:46;;;;;;;7.28;2.90;;;;;;;;;;4967509;28;20141;-57
2022/10/03 13:18:20;;;;;;;10.23;2.97;;;;;;;;;;4972323;28;20050;-61
2022/10/03 13:21:26;;;;;;;7.90;2.88;;;;;;;;;;4977983;28;20046;-60
2022/10/03 13:23:58;;;;;;;7.70;2.88;;;;;;;;;;4969550;28;20050;-60
2022/10/03 13:26:43;;;;;;;9.30;2.90;;;;;;;;;;4977451;28;20457;-60
2022/10/03 13:29:22;;;;;;;6.63;3.30;;;;;;;;;;4970521;28;20325;-61
2022/10/03 13:32:15;;;;;;;5.72;2.95;;;;;;;;;;4975351;28;23068;-60
2022/10/03 13:34:56;;;;;;;11.50;2.90;;;;;;;;;;4970410;28;20047;-61
2022/10/03 13:37:30;;;;;;;10.55;2.85;;;;;;;;;;4974248;28;20046;-60
2022/10/03 13:40:07;;;;;;;6.45;2.92;;;;;;;;;;4971431;28;20061;-59
2022/10/03 13:42:52;;;;;;;9.48;3.13;;;;;;;;;;4968001;28;20057;-60
2022/10/03 13:45:23;;;;;;;6.80;2.60;;;;;;;;;;4974802;28;20085;-60
2022/10/03 13:47:54;;;;;;;8.18;2.70;;;;;;;;;;4973582;28;20050;-63
2022/10/03 13:50:38;;;;;;;10.00;2.88;;;;;;;;;;4968036;28;20033;-60
2022/10/03 13:53:11;;;;;;;7.25;2.90;;;;;;;;;;4971305;28;20544;-61
2022/10/03 13:55:47;;;;;;;6.90;2.20;;;;;;;;;;4975049;28;20054;-60
2022/10/03 13:58:30;;;;;;;7.07;2.42;;;;;;;;;;4975078;28;20057;-60
2022/10/03 14:01:20;;;;;;;8.68;2.70;;;;;;;;;;4974291;28;20050;-59
2022/10/03 14:04:05;;;;;;;9.15;2.88;;;;;;;;;;4971866;28;20043;-65
2022/10/03 14:06:40;;;;;;;8.60;2.60;;;;;;;;;;4976362;28;20612;-60
2022/10/03 14:09:27;;;;;;;4.63;2.83;;;;;;;;;;4966217;28;20606;-58
2022/10/03 14:12:15;;;;;;;6.15;3.20;;;;;;;;;;4964643;28;20050;-59
2022/10/03 14:15:04;;;;;;;10.10;2.97;;;;;;;;;;4973709;28;20084;-59
2022/10/03 14:17:45;;;;;;;8.48;3.35;;;;;;;;;;4974262;28;20054;-58
2022/10/03 14:20:19;;;;;;;8.73;3.35;;;;;;;;;;4972862;28;20034;-59
2022/10/03 14:23:21;;;;;;;5.78;2.78;;;;;;;;;;4972528;28;20050;-59
2022/10/03 14:25:55;;;;;;;9.52;2.80;;;;;;;;;;4970216;28;20046;-59
2022/10/03 14:28:31;;;;;;;5.30;2.35;;;;;;;;;;4973226;28;20673;-58
2022/10/03 14:31:15;;;;;;;6.07;2.85;;;;;;;;;;4970512;28;20129;-59
2022/10/03 14:34:11;;;;;;;6.80;2.88;;;;;;;;;;4966287;28;20054;-59
2022/10/03 14:37:26;;;;;;;7.38;3.05;;;;;;;;;;4970772;28;20074;-60
2022/10/03 14:40:19;;;;;;;6.78;2.65;;;;;;;;;;4896097;29;20056;-59
2022/10/03 14:43:18;;;;;;;9.20;3.05;;;;;;;;;;4900446;29;20052;-61
2022/10/03 14:45:49;;;;;;;8.20;2.75;;;;;;;;;;4931039;28;20061;-60
2022/10/03 14:48:20;;;;;;;7.35;2.45;;;;;;;;;;4970004;28;20081;-60
2022/10/03 14:50:49;;;;;;;9.57;2.92;;;;;;;;;;4969375;28;20057;-59
2022/10/03 14:53:22;;;;;;;8.25;3.05;;;;;;;;;;4975035;28;20046;-59
2022/10/03 14:55:51;;;;;;;12.77;3.47;;;;;;;;;;4970098;28;20050;-59
2022/10/03 14:58:31;;;;;;;7.88;3.22;;;;;;;;;;4970608;28;20097;-59
2022/10/03 15:01:12;;;;;;;6.50;3.05;;;;;;;;;;4968176;28;20512;-59
2022/10/03 15:03:41;;;;;;;9.93;2.72;;;;;;;;;;4972535;28;20042;-59
2022/10/03 15:06:20;;;;;;;6.22;2.78;;;;;;;;;;4967953;28;20414;-61
2022/10/03 15:08:55;;;;;;;5.88;3.05;;;;;;;;;;4949790;28;20076;-60
2022/10/03 15:11:26;;;;;;;8.05;2.60;;;;;;;;;;4969195;28;20070;-60
2022/10/03 15:14:02;;;;;;;7.32;3.00;;;;;;;;;;4970190;28;21393;-62
2022/10/03 15:16:34;;;;;;;10.38;2.70;;;;;;;;;;4969822;28;20054;-59
2022/10/03 15:19:10;;;;;;;6.60;3.22;;;;;;;;;;4967568;28;20046;-59
2022/10/03 15:21:40;;;;;;;6.85;2.70;;;;;;;;;;4954211;28;20386;-59
2022/10/03 15:24:11;;;;;;;4.47;2.67;;;;;;;;;;4974218;28;20477;-59
2022/10/03 15:26:38;;;;;;;7.68;2.70;;;;;;;;;;4967948;28;20034;-62
2022/10/03 15:29:05;;;;;;;8.07;2.85;;;;;;;;;;4963524;28;20619;-61
2022/10/03 15:31:36;;;;;;;9.32;3.42;;;;;;;;;;4970618;28;20062;-60
2022/10/03 15:34:19;;;;;;;11.40;3.13;;;;;;;;;;4970302;28;20490;-61
2022/10/03 15:36:54;;;;;;;6.63;2.75;;;;;;;;;;4967274;28;20050;-63
2022/10/03 15:39:40;;;;;;;7.18;2.97;;;;;;;;;;4971720;28;20054;-61
2022/10/03 15:42:09;;;;;;;8.02;3.10;;;;;;;;;;4972668;28;20052;-61
2022/10/03 15:44:38;;;;;;;6.45;2.90;;;;;;;;;;4975406;28;20049;-60
2022/10/03 15:47:31;;;;;;;5.57;2.85;;;;;;;;;;4972915;28;20089;-61
2022/10/03 15:50:20;;;;;;;8.52;3.28;;;;;;;;;;4972348;28;20043;-62
2022/10/03 15:52:51;;;;;;;11.20;3.25;;;;;;;;;;4980042;28;20057;-61
2022/10/03 15:55:20;;;;;;;7.93;3.60;;;;;;;;;;4975568;28;20093;-60
2022/10/03 15:57:49;;;;;;;9.52;3.65;;;;;;;;;;4975411;28;21288;-60
2022/10/03 16:00:30;;;;;;;12.20;4.00;;;;;;;;;;4972015;28;20050;-60
2022/10/03 16:03:15;;;;;;;6.55;3.40;;;;;;;;;;4976884;28;20049;-61
2022/10/03 16:05:53;;;;;;;6.05;3.53;;;;;;;;;;4975000;28;20038;-66
2022/10/03 16:08:22;;;;;;;6.63;2.92;;;;;;;;;;4979679;28;20034;-68
2022/10/03 16:10:57;;;;;;;10.23;3.30;;;;;;;;;;4976186;28;20045;-67
2022/10/03 16:13:29;;;;;;;5.93;3.40;;;;;;;;;;4977729;28;20141;-66
2022/10/03 16:16:14;;;;;;;7.45;3.60;;;;;;;;;;4972281;28;20545;-66
2022/10/03 16:18:40;;;;;;;6.72;3.58;;;;;;;;;;4973659;28;20064;-66
2022/10/03 16:21:08;;;;;;;9.68;3.88;;;;;;;;;;4976344;28;20038;-66
2022/10/03 16:23:39;;;;;;;11.65;3.83;;;;;;;;;;4977424;28;20034;-66
2022/10/03 16:26:18;;;;;;;11.13;3.90;;;;;;;;;;4976881;28;20035;-66